createdAt,value
2022-12-01T00:00:21.388Z,0.94
2022-12-01T00:01:23.251Z,1.27
2022-12-01T00:02:25.168Z,1.19
2022-12-01T00:03:28.100Z,1.01
2022-12-01T00:04:29.913Z,0.79
2022-12-01T00:05:31.761Z,1.15
2022-12-01T00:06:33.541Z,0.96
2022-12-01T00:07:35.431Z,1.00
2022-12-01T00:08:37.275Z,1.27
2022-12-01T00:09:39.086Z,1.27
2022-12-01T00:10:41.026Z,1.22
2022-12-01T00:11:42.817Z,1.35
2022-12-01T00:12:44.639Z,1.34
2022-12-01T00:13:46.436Z,1.01
2022-12-01T00:14:48.224Z,1.21
2022-12-01T00:15:50.086Z,1.23
2022-12-01T00:16:52.030Z,1.11
2022-12-01T00:17:53.884Z,1.06
2022-12-01T00:18:55.704Z,1.10
2022-12-01T00:19:57.514Z,0.73
2022-12-01T00:20:59.493Z,1.39
2022-12-01T00:22:01.308Z,2.06
2022-12-01T00:23:03.119Z,1.77
2022-12-01T00:24:04.910Z,2.65
2022-12-01T00:25:06.710Z,2.47
2022-12-01T00:26:09.051Z,1.49
2022-12-01T00:27:10.864Z,1.11
2022-12-01T00:28:12.673Z,1.73
2022-12-01T00:29:14.470Z,2.94
2022-12-01T00:30:16.377Z,2.40
2022-12-01T00:31:18.266Z,1.87
2022-12-01T00:32:20.047Z,1.84
2022-12-01T00:33:21.837Z,1.31
2022-12-01T00:34:23.640Z,1.11
2022-12-01T00:35:25.437Z,1.17
2022-12-01T00:36:27.193Z,0.99
2022-12-01T00:37:28.981Z,1.81
2022-12-01T00:38:30.669Z,1.71
2022-12-01T00:39:32.466Z,1.00
2022-12-01T00:40:34.375Z,1.09
2022-12-01T00:41:36.224Z,1.11
2022-12-01T00:42:38.049Z,0.94
2022-12-01T00:43:39.913Z,1.06
2022-12-01T00:44:41.753Z,1.07
2022-12-01T00:45:43.609Z,1.26
2022-12-01T00:46:45.430Z,1.15
2022-12-01T00:47:47.408Z,0.85
2022-12-01T00:48:49.198Z,1.08
2022-12-01T00:49:51.182Z,0.90
2022-12-01T00:50:53.092Z,1.08
2022-12-01T00:51:54.943Z,0.97
2022-12-01T00:52:56.718Z,1.09
2022-12-01T00:53:58.552Z,1.03
2022-12-01T00:55:00.450Z,0.84
2022-12-01T00:56:02.230Z,1.09
2022-12-01T00:57:04.081Z,1.08
2022-12-01T00:58:05.924Z,0.87
2022-12-01T00:59:07.738Z,1.38
2022-12-01T01:00:09.969Z,1.00
2022-12-01T01:01:11.841Z,1.30
2022-12-01T01:02:13.824Z,1.89
2022-12-01T01:03:15.634Z,1.73
2022-12-01T01:04:17.453Z,1.77
2022-12-01T01:05:19.270Z,1.16
2022-12-01T01:06:21.073Z,1.26
2022-12-01T01:07:22.954Z,1.25
2022-12-01T01:08:24.729Z,1.17
2022-12-01T01:09:26.539Z,1.31
2022-12-01T01:10:28.447Z,1.74
2022-12-01T01:11:30.242Z,2.86
2022-12-01T01:12:32.113Z,4.51
2022-12-01T01:13:33.892Z,2.67
2022-12-01T01:14:35.707Z,2.61
2022-12-01T01:15:37.503Z,1.89
2022-12-01T01:16:39.322Z,2.45
2022-12-01T01:17:41.136Z,3.01
2022-12-01T01:18:43.035Z,3.51
2022-12-01T01:19:44.855Z,2.26
2022-12-01T01:20:46.759Z,2.86
2022-12-01T01:21:48.538Z,2.33
2022-12-01T01:22:50.410Z,2.07
2022-12-01T01:23:52.212Z,2.29
2022-12-01T01:24:53.981Z,1.82
2022-12-01T01:25:55.786Z,2.05
2022-12-01T01:26:57.575Z,2.17
2022-12-01T01:27:59.412Z,1.96
2022-12-01T01:29:01.228Z,2.06
2022-12-01T01:30:03.045Z,1.79
2022-12-01T01:31:04.898Z,1.69
2022-12-01T01:32:06.646Z,1.97
2022-12-01T01:33:08.511Z,1.49
2022-12-01T01:34:10.374Z,1.82
2022-12-01T01:35:12.179Z,1.29
2022-12-01T01:36:14.289Z,1.38
2022-12-01T01:37:16.085Z,1.30
2022-12-01T01:38:17.929Z,1.49
2022-12-01T01:39:19.737Z,1.25
2022-12-01T01:40:21.556Z,1.67
2022-12-01T01:41:23.376Z,1.72
2022-12-01T01:42:25.194Z,1.98
2022-12-01T01:43:27.041Z,1.44
2022-12-01T01:44:28.858Z,1.39
2022-12-01T01:45:30.664Z,1.59
2022-12-01T01:46:32.512Z,2.04
2022-12-01T01:47:34.262Z,1.76
2022-12-01T01:48:36.104Z,1.70
2022-12-01T01:49:38.039Z,1.27
2022-12-01T01:50:39.859Z,1.67
2022-12-01T01:51:41.672Z,1.89
2022-12-01T01:52:43.475Z,1.39
2022-12-01T01:53:45.321Z,1.49
2022-12-01T01:54:47.130Z,1.42
2022-12-01T01:55:48.932Z,1.85
2022-12-01T01:56:50.936Z,1.53
2022-12-01T01:57:52.743Z,2.48
2022-12-01T01:58:54.580Z,2.41
2022-12-01T01:59:56.387Z,3.35
2022-12-01T02:00:58.329Z,3.49
2022-12-01T02:02:00.133Z,3.47
2022-12-01T02:03:01.921Z,4.02
2022-12-01T02:04:04.147Z,5.17
2022-12-01T02:05:06.021Z,2.89
2022-12-01T02:06:08.741Z,2.70
2022-12-01T02:07:10.548Z,2.78
2022-12-01T02:08:12.417Z,3.02
2022-12-01T02:09:14.301Z,2.80
2022-12-01T02:10:16.092Z,4.04
2022-12-01T02:11:17.895Z,4.21
2022-12-01T02:12:19.704Z,3.73
2022-12-01T02:13:21.514Z,2.84
2022-12-01T02:14:23.353Z,2.51
2022-12-01T02:15:25.166Z,2.19
2022-12-01T02:16:27.015Z,2.73
2022-12-01T02:17:28.779Z,2.28
2022-12-01T02:18:30.602Z,1.69
2022-12-01T02:19:32.437Z,1.52
2022-12-01T02:20:34.312Z,1.63
2022-12-01T02:21:36.128Z,1.76
2022-12-01T02:22:37.951Z,2.30
2022-12-01T02:23:39.741Z,1.70
2022-12-01T02:24:41.582Z,2.47
2022-12-01T02:25:43.392Z,2.17
2022-12-01T02:26:45.194Z,2.89
2022-12-01T02:27:47.006Z,1.76
2022-12-01T02:28:48.913Z,2.30
2022-12-01T02:29:50.951Z,2.09
2022-12-01T02:30:52.993Z,1.68
2022-12-01T02:31:54.805Z,1.33
2022-12-01T02:32:56.603Z,2.08
2022-12-01T02:33:58.418Z,1.64
2022-12-01T02:35:00.268Z,2.63
2022-12-01T02:36:02.124Z,2.01
2022-12-01T02:37:03.940Z,1.67
2022-12-01T02:38:05.745Z,1.55
2022-12-01T02:39:07.548Z,1.69
2022-12-01T02:40:09.714Z,1.71
2022-12-01T02:41:11.549Z,1.52
2022-12-01T02:42:13.360Z,1.73
2022-12-01T02:43:15.177Z,1.73
2022-12-01T02:44:16.963Z,2.44
2022-12-01T02:45:18.799Z,1.79
2022-12-01T02:46:20.662Z,1.83
2022-12-01T02:47:22.614Z,2.34
2022-12-01T02:48:24.404Z,1.91
2022-12-01T02:49:26.211Z,1.47
2022-12-01T02:50:28.049Z,1.61
2022-12-01T02:51:29.928Z,2.05
2022-12-01T02:52:31.722Z,1.69
2022-12-01T02:53:33.522Z,1.85
2022-12-01T02:54:35.331Z,1.97
2022-12-01T02:55:37.194Z,1.97
2022-12-01T02:56:39.003Z,1.99
2022-12-01T02:57:40.794Z,1.54
2022-12-01T02:58:42.603Z,1.90
2022-12-01T02:59:44.399Z,1.57
2022-12-01T03:00:46.274Z,1.46
2022-12-01T03:01:48.117Z,1.95
2022-12-01T03:02:49.960Z,1.59
2022-12-01T03:03:51.799Z,1.75
2022-12-01T03:04:53.603Z,1.85
2022-12-01T03:05:55.459Z,1.94
2022-12-01T03:06:57.301Z,2.50
2022-12-01T03:07:59.156Z,2.00
2022-12-01T03:09:00.982Z,2.40
2022-12-01T03:10:02.801Z,1.69
2022-12-01T03:11:04.644Z,1.51
2022-12-01T03:12:06.445Z,1.88
2022-12-01T03:13:08.244Z,2.80
2022-12-01T03:14:10.059Z,6.91
2022-12-01T03:15:11.868Z,5.94
2022-12-01T03:16:14.045Z,5.13
2022-12-01T03:17:15.821Z,3.41
2022-12-01T03:18:17.628Z,3.39
2022-12-01T03:19:19.432Z,2.01
2022-12-01T03:20:21.237Z,1.53
2022-12-01T03:21:23.077Z,1.46
2022-12-01T03:22:24.952Z,1.80
2022-12-01T03:23:26.853Z,1.99
2022-12-01T03:24:28.663Z,2.09
2022-12-01T03:25:30.456Z,2.43
2022-12-01T03:26:32.322Z,1.80
2022-12-01T03:27:34.136Z,3.49
2022-12-01T03:28:35.936Z,4.76
2022-12-01T03:29:37.742Z,7.65
2022-12-01T03:30:39.558Z,9.68
2022-12-01T03:31:41.483Z,9.78
2022-12-01T03:32:43.358Z,5.33
2022-12-01T03:33:45.155Z,3.97
2022-12-01T03:34:46.956Z,4.00
2022-12-01T03:35:48.773Z,3.67
2022-12-01T03:36:50.630Z,4.15
2022-12-01T03:37:52.704Z,2.45
2022-12-01T03:38:54.510Z,2.89
2022-12-01T03:40:00.346Z,2.53
2022-12-01T03:40:59.935Z,2.69
2022-12-01T03:42:01.774Z,2.06
2022-12-01T03:43:03.583Z,2.52
2022-12-01T03:44:05.377Z,2.55
2022-12-01T03:45:07.189Z,2.29
2022-12-01T03:46:09.477Z,2.92
2022-12-01T03:47:11.266Z,3.49
2022-12-01T03:48:13.070Z,2.86
2022-12-01T03:49:14.873Z,3.68
2022-12-01T03:50:16.769Z,3.61
2022-12-01T03:51:18.575Z,3.91
2022-12-01T03:52:20.435Z,3.79
2022-12-01T03:53:22.321Z,3.07
2022-12-01T03:54:24.109Z,2.21
2022-12-01T03:55:25.912Z,2.84
2022-12-01T03:56:27.720Z,4.23
2022-12-01T03:57:29.577Z,2.85
2022-12-01T03:58:31.389Z,2.39
2022-12-01T03:59:33.205Z,3.48
2022-12-01T04:00:34.990Z,3.76
2022-12-01T04:01:36.861Z,5.08
2022-12-01T04:02:38.894Z,3.53
2022-12-01T04:03:40.745Z,3.19
2022-12-01T04:04:42.556Z,3.49
2022-12-01T04:05:44.340Z,2.34
2022-12-01T04:06:46.264Z,2.61
2022-12-01T04:07:48.163Z,2.01
2022-12-01T04:08:49.984Z,2.99
2022-12-01T04:09:52.004Z,3.11
2022-12-01T04:10:53.920Z,2.84
2022-12-01T04:11:55.728Z,2.35
2022-12-01T04:12:57.591Z,1.90
2022-12-01T04:13:59.440Z,1.89
2022-12-01T04:15:01.225Z,2.01
2022-12-01T04:16:03.095Z,2.40
2022-12-01T04:17:04.914Z,2.29
2022-12-01T04:18:06.783Z,2.48
2022-12-01T04:19:08.594Z,2.24
2022-12-01T04:20:10.406Z,1.96
2022-12-01T04:21:12.282Z,1.73
2022-12-01T04:22:14.092Z,2.75
2022-12-01T04:23:15.907Z,2.29
2022-12-01T04:24:17.788Z,3.52
2022-12-01T04:25:19.594Z,2.56
2022-12-01T04:26:21.381Z,2.92
2022-12-01T04:27:23.198Z,3.22
2022-12-01T04:28:25.022Z,3.21
2022-12-01T04:29:26.816Z,2.58
2022-12-01T04:30:28.720Z,2.47
2022-12-01T04:31:30.603Z,2.21
2022-12-01T04:32:32.553Z,2.05
2022-12-01T04:33:34.427Z,2.37
2022-12-01T04:34:36.217Z,2.42
2022-12-01T04:35:38.010Z,1.79
2022-12-01T04:36:39.791Z,2.65
2022-12-01T04:37:41.583Z,2.79
2022-12-01T04:38:43.329Z,3.19
2022-12-01T04:39:45.504Z,4.09
2022-12-01T04:40:47.402Z,4.12
2022-12-01T04:41:49.196Z,2.77
2022-12-01T04:42:51.011Z,2.79
2022-12-01T04:43:52.874Z,2.25
2022-12-01T04:44:54.685Z,1.35
2022-12-01T04:45:56.502Z,2.16
2022-12-01T04:46:58.458Z,2.75
2022-12-01T04:48:00.236Z,3.51
2022-12-01T04:49:02.105Z,6.18
2022-12-01T04:50:04.001Z,9.41
2022-12-01T04:51:05.796Z,8.29
2022-12-01T04:52:07.597Z,6.41
2022-12-01T04:53:09.404Z,4.96
2022-12-01T04:54:11.261Z,4.88
2022-12-01T04:55:13.204Z,4.37
2022-12-01T04:56:15.296Z,4.47
2022-12-01T04:57:17.088Z,3.54
2022-12-01T04:58:18.875Z,3.81
2022-12-01T04:59:20.725Z,3.66
2022-12-01T05:00:22.535Z,3.39
2022-12-01T05:01:24.448Z,2.41
2022-12-01T05:02:26.289Z,2.49
2022-12-01T05:03:28.132Z,2.51
2022-12-01T05:04:29.976Z,2.49
2022-12-01T05:05:31.781Z,2.82
2022-12-01T05:06:33.750Z,1.95
2022-12-01T05:07:35.623Z,2.32
2022-12-01T05:08:37.366Z,2.45
2022-12-01T05:09:39.217Z,1.93
2022-12-01T05:10:41.101Z,2.47
2022-12-01T05:11:42.921Z,1.99
2022-12-01T05:12:44.692Z,2.13
2022-12-01T05:13:46.492Z,2.51
2022-12-01T05:14:48.342Z,2.18
2022-12-01T05:15:50.202Z,2.35
2022-12-01T05:16:51.954Z,1.97
2022-12-01T05:17:53.722Z,1.74
2022-12-01T05:18:55.540Z,1.84
2022-12-01T05:19:57.368Z,1.85
2022-12-01T05:20:59.181Z,1.97
2022-12-01T05:22:01.130Z,2.04
2022-12-01T05:23:05.813Z,1.97
2022-12-01T05:24:06.567Z,2.16
2022-12-01T05:25:08.367Z,1.59
2022-12-01T05:26:10.505Z,1.97
2022-12-01T05:27:12.299Z,2.03
2022-12-01T05:28:14.082Z,1.71
2022-12-01T05:29:15.906Z,1.98
2022-12-01T05:30:17.763Z,2.19
2022-12-01T05:31:19.609Z,2.32
2022-12-01T05:32:21.376Z,2.39
2022-12-01T05:33:23.271Z,2.08
2022-12-01T05:34:25.093Z,1.95
2022-12-01T05:35:26.951Z,2.94
2022-12-01T05:36:28.873Z,2.29
2022-12-01T05:37:30.695Z,2.35
2022-12-01T05:38:32.489Z,3.03
2022-12-01T05:39:34.305Z,2.84
2022-12-01T05:40:36.136Z,3.13
2022-12-01T05:41:38.014Z,2.63
2022-12-01T05:42:39.825Z,2.92
2022-12-01T05:43:41.688Z,3.13
2022-12-01T05:44:43.491Z,2.89
2022-12-01T05:45:45.366Z,3.16
2022-12-01T05:46:47.252Z,2.94
2022-12-01T05:47:49.057Z,2.56
2022-12-01T05:48:50.866Z,2.80
2022-12-01T05:49:52.639Z,2.35
2022-12-01T05:50:54.509Z,1.44
2022-12-01T05:51:56.339Z,1.71
2022-12-01T05:52:58.137Z,1.41
2022-12-01T05:53:59.940Z,1.43
2022-12-01T05:55:01.756Z,1.69
2022-12-01T05:56:03.610Z,1.55
2022-12-01T05:57:05.516Z,1.31
2022-12-01T05:58:07.306Z,1.55
2022-12-01T05:59:09.538Z,1.37
2022-12-01T06:00:11.438Z,1.53
2022-12-01T06:01:13.297Z,1.40
2022-12-01T06:02:15.147Z,1.53
2022-12-01T06:03:16.924Z,2.32
2022-12-01T06:04:18.760Z,2.52
2022-12-01T06:05:20.553Z,2.30
2022-12-01T06:06:22.543Z,2.73
2022-12-01T06:07:24.392Z,2.83
2022-12-01T06:08:26.196Z,2.07
2022-12-01T06:09:28.006Z,2.33
2022-12-01T06:10:29.896Z,2.05
2022-12-01T06:11:31.748Z,2.23
2022-12-01T06:12:33.601Z,2.00
2022-12-01T06:13:35.405Z,1.65
2022-12-01T06:14:37.108Z,2.06
2022-12-01T06:15:38.919Z,1.58
2022-12-01T06:16:40.931Z,1.90
2022-12-01T06:17:42.784Z,1.96
2022-12-01T06:18:44.582Z,1.96
2022-12-01T06:19:46.526Z,2.43
2022-12-01T06:20:48.541Z,3.79
2022-12-01T06:21:50.386Z,6.28
2022-12-01T06:22:52.194Z,3.59
2022-12-01T06:23:54.036Z,2.60
2022-12-01T06:24:55.851Z,2.54
2022-12-01T06:25:57.684Z,2.48
2022-12-01T06:26:59.526Z,1.89
2022-12-01T06:28:01.360Z,2.41
2022-12-01T06:29:03.353Z,2.17
2022-12-01T06:30:05.334Z,2.25
2022-12-01T06:31:07.131Z,1.85
2022-12-01T06:32:09.149Z,2.57
2022-12-01T06:33:10.986Z,2.41
2022-12-01T06:34:12.774Z,2.59
2022-12-01T06:35:14.593Z,2.48
2022-12-01T06:36:16.525Z,2.76
2022-12-01T06:37:18.387Z,2.45
2022-12-01T06:38:20.180Z,2.43
2022-12-01T06:39:21.993Z,2.79
2022-12-01T06:40:23.910Z,2.35
2022-12-01T06:41:25.720Z,2.18
2022-12-01T06:42:27.586Z,2.18
2022-12-01T06:43:29.770Z,2.99
2022-12-01T06:44:31.581Z,3.11
2022-12-01T06:45:33.433Z,3.92
2022-12-01T06:46:35.458Z,2.33
2022-12-01T06:47:37.864Z,2.71
2022-12-01T06:48:39.673Z,2.59
2022-12-01T06:49:41.471Z,3.19
2022-12-01T06:50:43.363Z,2.55
2022-12-01T06:51:45.172Z,2.85
2022-12-01T06:52:47.026Z,2.95
2022-12-01T06:53:48.847Z,2.41
2022-12-01T06:54:50.657Z,2.42
2022-12-01T06:55:52.665Z,2.27
2022-12-01T06:56:54.693Z,2.45
2022-12-01T06:57:56.817Z,2.23
2022-12-01T06:58:59.005Z,3.17
2022-12-01T07:00:01.214Z,2.37
2022-12-01T07:01:03.203Z,2.11
2022-12-01T07:02:05.067Z,1.99
2022-12-01T07:03:06.912Z,2.18
2022-12-01T07:04:08.736Z,2.41
2022-12-01T07:05:10.520Z,2.68
2022-12-01T07:06:12.435Z,2.43
2022-12-01T07:07:14.229Z,2.66
2022-12-01T07:08:16.157Z,2.70
2022-12-01T07:09:17.983Z,3.37
2022-12-01T07:10:19.778Z,3.25
2022-12-01T07:11:21.584Z,2.59
2022-12-01T07:12:23.395Z,3.04
2022-12-01T07:13:30.100Z,2.16
2022-12-01T07:14:29.020Z,2.74
2022-12-01T07:15:30.822Z,2.58
2022-12-01T07:16:32.773Z,1.93
2022-12-01T07:17:34.546Z,2.23
2022-12-01T07:18:36.418Z,2.06
2022-12-01T07:19:38.223Z,2.29
2022-12-01T07:20:40.023Z,2.52
2022-12-01T07:21:41.847Z,2.07
2022-12-01T07:22:43.658Z,2.28
2022-12-01T07:23:45.502Z,2.58
2022-12-01T07:24:47.322Z,3.17
2022-12-01T07:25:49.114Z,2.81
2022-12-01T07:26:50.924Z,3.27
2022-12-01T07:27:52.739Z,2.66
2022-12-01T07:28:54.588Z,3.11
2022-12-01T07:29:56.432Z,3.12
2022-12-01T07:30:58.372Z,3.21
2022-12-01T07:32:00.168Z,2.78
2022-12-01T07:33:01.971Z,2.44
2022-12-01T07:34:03.802Z,2.51
2022-12-01T07:35:05.603Z,2.37
2022-12-01T07:36:07.720Z,2.85
2022-12-01T07:37:09.523Z,2.31
2022-12-01T07:38:11.323Z,2.65
2022-12-01T07:39:13.181Z,2.63
2022-12-01T07:40:15.141Z,1.83
2022-12-01T07:41:16.901Z,1.89
2022-12-01T07:42:18.691Z,1.93
2022-12-01T07:43:20.514Z,2.01
2022-12-01T07:44:22.396Z,1.85
2022-12-01T07:45:24.303Z,1.76
2022-12-01T07:46:26.197Z,1.88
2022-12-01T07:47:28.031Z,1.81
2022-12-01T07:48:29.859Z,1.74
2022-12-01T07:49:31.711Z,1.99
2022-12-01T07:50:33.642Z,2.71
2022-12-01T07:51:36.980Z,2.28
2022-12-01T07:52:38.797Z,3.02
2022-12-01T07:53:40.627Z,3.57
2022-12-01T07:54:42.506Z,2.84
2022-12-01T07:55:44.315Z,3.61
2022-12-01T07:56:46.217Z,5.14
2022-12-01T07:57:48.040Z,4.27
2022-12-01T07:58:49.852Z,3.05
2022-12-01T07:59:51.856Z,1.44
2022-12-01T08:00:53.949Z,1.23
2022-12-01T08:01:55.853Z,1.79
2022-12-01T08:02:57.707Z,1.69
2022-12-01T08:03:59.490Z,1.80
2022-12-01T08:05:01.340Z,2.16
2022-12-01T08:06:03.160Z,1.80
2022-12-01T08:07:04.969Z,2.09
2022-12-01T08:08:07.309Z,1.78
2022-12-01T08:09:09.245Z,2.17
2022-12-01T08:10:11.304Z,2.14
2022-12-01T08:11:13.129Z,2.41
2022-12-01T08:12:14.925Z,2.26
2022-12-01T08:13:17.553Z,2.89
2022-12-01T08:14:19.548Z,2.54
2022-12-01T08:15:22.499Z,1.88
2022-12-01T08:16:24.412Z,2.23
2022-12-01T08:17:26.231Z,1.88
2022-12-01T08:18:28.035Z,2.68
2022-12-01T08:19:29.856Z,2.14
2022-12-01T08:20:31.787Z,2.35
2022-12-01T08:21:33.605Z,2.48
2022-12-01T08:22:35.408Z,2.13
2022-12-01T08:23:37.227Z,2.04
2022-12-01T08:24:39.041Z,2.06
2022-12-01T08:25:40.895Z,2.09
2022-12-01T08:26:42.802Z,1.76
2022-12-01T08:27:44.630Z,2.11
2022-12-01T08:28:46.440Z,3.02
2022-12-01T08:29:48.533Z,2.81
2022-12-01T08:30:50.877Z,2.50
2022-12-01T08:31:52.715Z,2.49
2022-12-01T08:32:54.527Z,1.97
2022-12-01T08:33:56.318Z,1.84
2022-12-01T08:34:58.121Z,2.18
2022-12-01T08:35:59.959Z,1.46
2022-12-01T08:37:01.756Z,2.28
2022-12-01T08:38:03.562Z,1.50
2022-12-01T08:39:05.395Z,2.10
2022-12-01T08:40:07.517Z,2.37
2022-12-01T08:41:09.372Z,2.06
2022-12-01T08:42:11.198Z,1.83
2022-12-01T08:43:23.115Z,1.84
2022-12-01T08:44:16.710Z,1.81
2022-12-01T08:45:18.526Z,2.49
2022-12-01T08:46:20.380Z,2.01
2022-12-01T08:47:22.267Z,2.17
2022-12-01T08:48:24.102Z,1.94
2022-12-01T08:49:25.888Z,1.36
2022-12-01T08:50:27.706Z,1.67
2022-12-01T08:51:29.543Z,2.07
2022-12-01T08:52:31.368Z,2.10
2022-12-01T08:53:33.164Z,2.73
2022-12-01T08:54:34.974Z,2.67
2022-12-01T08:55:36.764Z,3.31
2022-12-01T08:56:38.799Z,3.60
2022-12-01T08:57:40.625Z,3.83
2022-12-01T08:58:42.446Z,2.28
2022-12-01T08:59:44.262Z,3.95
2022-12-01T09:00:46.215Z,3.17
2022-12-01T09:01:48.162Z,2.51
2022-12-01T09:02:51.108Z,3.06
2022-12-01T09:03:52.891Z,2.43
2022-12-01T09:04:54.675Z,2.46
2022-12-01T09:05:56.465Z,5.14
2022-12-01T09:06:58.418Z,4.10
2022-12-01T09:08:00.396Z,3.17
2022-12-01T09:09:02.238Z,3.50
2022-12-01T09:10:04.027Z,1.89
2022-12-01T09:11:05.812Z,5.10
2022-12-01T09:12:07.686Z,7.33
2022-12-01T09:13:09.512Z,9.03
2022-12-01T09:14:11.325Z,9.29
2022-12-01T09:15:13.141Z,4.71
2022-12-01T09:16:14.972Z,4.28
2022-12-01T09:17:16.768Z,2.76
2022-12-01T09:18:18.640Z,2.63
2022-12-01T09:19:24.535Z,4.33
2022-12-01T09:20:24.083Z,3.96
2022-12-01T09:21:25.898Z,3.39
2022-12-01T09:22:27.775Z,2.67
2022-12-01T09:23:29.607Z,1.79
2022-12-01T09:24:31.404Z,2.36
2022-12-01T09:25:33.218Z,1.92
2022-12-01T09:26:35.162Z,2.65
2022-12-01T09:27:36.999Z,2.40
2022-12-01T09:28:38.780Z,2.38
2022-12-01T09:29:40.591Z,1.37
2022-12-01T09:30:42.394Z,1.39
2022-12-01T09:31:44.270Z,1.53
2022-12-01T09:32:46.131Z,2.12
2022-12-01T09:33:47.970Z,2.18
2022-12-01T09:34:49.772Z,1.95
2022-12-01T09:35:51.562Z,1.69
2022-12-01T09:36:53.407Z,2.09
2022-12-01T09:37:55.702Z,2.17
2022-12-01T09:38:57.508Z,1.87
2022-12-01T09:39:59.329Z,2.12
2022-12-01T09:41:01.228Z,1.83
2022-12-01T09:42:08.402Z,2.25
2022-12-01T09:43:06.693Z,2.75
2022-12-01T09:44:08.524Z,2.81
2022-12-01T09:45:10.327Z,3.31
2022-12-01T09:46:12.143Z,3.53
2022-12-01T09:47:13.939Z,2.71
2022-12-01T09:48:15.754Z,2.62
2022-12-01T09:49:17.649Z,2.65
2022-12-01T09:50:19.469Z,3.76
2022-12-01T09:51:21.264Z,3.86
2022-12-01T09:52:23.089Z,3.63
2022-12-01T09:53:24.911Z,3.79
2022-12-01T09:54:26.739Z,3.81
2022-12-01T09:55:28.548Z,5.12
2022-12-01T09:56:30.332Z,3.09
2022-12-01T09:57:32.136Z,6.06
2022-12-01T09:58:33.974Z,5.83
2022-12-01T09:59:35.788Z,5.70
2022-12-01T10:00:37.992Z,4.17
2022-12-01T10:01:39.894Z,3.98
2022-12-01T10:02:41.748Z,3.71
2022-12-01T10:03:43.592Z,3.37
2022-12-01T10:04:45.461Z,3.11
2022-12-01T10:06:24.649Z,2.76
2022-12-01T10:06:50.892Z,2.29
2022-12-01T10:07:52.935Z,2.19
2022-12-01T10:08:54.806Z,2.31
2022-12-01T10:09:56.631Z,10.22
2022-12-01T10:10:58.554Z,5.15
2022-12-01T10:12:00.363Z,4.20
2022-12-01T10:13:02.164Z,3.91
2022-12-01T10:14:04.139Z,3.55
2022-12-01T10:15:05.964Z,2.87
2022-12-01T10:16:07.889Z,2.82
2022-12-01T10:17:09.686Z,2.34
2022-12-01T10:18:11.482Z,2.16
2022-12-01T10:19:13.355Z,2.64
2022-12-01T10:20:15.235Z,3.54
2022-12-01T10:21:17.021Z,3.74
2022-12-01T10:22:18.847Z,4.05
2022-12-01T10:23:20.689Z,3.86
2022-12-01T10:24:22.524Z,2.63
2022-12-01T10:25:24.328Z,3.16
2022-12-01T10:26:26.120Z,1.83
2022-12-01T10:27:27.937Z,2.13
2022-12-01T10:28:29.727Z,2.07
2022-12-01T10:29:31.603Z,2.66
2022-12-01T10:30:33.404Z,2.41
2022-12-01T10:31:35.240Z,2.35
2022-12-01T10:32:37.042Z,2.82
2022-12-01T10:33:38.827Z,3.19
2022-12-01T10:34:40.685Z,3.45
2022-12-01T10:35:42.566Z,1.74
2022-12-01T10:36:44.370Z,1.82
2022-12-01T10:37:46.293Z,2.65
2022-12-01T10:38:49.495Z,2.90
2022-12-01T10:39:51.696Z,2.74
2022-12-01T10:40:53.945Z,3.39
2022-12-01T10:41:55.765Z,2.19
2022-12-01T10:42:57.600Z,2.73
2022-12-01T10:43:59.432Z,3.01
2022-12-01T10:45:01.262Z,2.09
2022-12-01T10:46:03.086Z,3.34
2022-12-01T10:47:04.861Z,2.88
2022-12-01T10:48:06.660Z,2.16
2022-12-01T10:49:08.467Z,3.99
2022-12-01T10:50:10.658Z,2.29
2022-12-01T10:51:12.484Z,1.91
2022-12-01T10:52:14.282Z,3.81
2022-12-01T10:53:16.093Z,4.69
2022-12-01T10:54:17.914Z,2.39
2022-12-01T10:55:19.767Z,5.18
2022-12-01T10:56:21.574Z,2.40
2022-12-01T10:57:23.368Z,2.33
2022-12-01T10:58:25.182Z,1.85
2022-12-01T10:59:26.989Z,2.48
2022-12-01T11:00:58.957Z,1.56
2022-12-01T11:01:32.615Z,1.70
2022-12-01T11:02:34.744Z,1.71
2022-12-01T11:03:36.768Z,1.35
2022-12-01T11:04:38.823Z,1.90
2022-12-01T11:05:40.669Z,2.73
2022-12-01T11:06:42.586Z,3.32
2022-12-01T11:07:44.477Z,3.13
2022-12-01T11:08:46.295Z,1.94
2022-12-01T11:09:48.297Z,1.92
2022-12-01T11:10:50.388Z,3.15
2022-12-01T11:11:52.185Z,3.79
2022-12-01T11:12:53.992Z,3.34
2022-12-01T11:13:55.813Z,3.55
2022-12-01T11:14:57.619Z,4.03
2022-12-01T11:15:59.470Z,3.74
2022-12-01T11:17:01.417Z,3.47
2022-12-01T11:18:03.172Z,3.02
2022-12-01T11:19:05.058Z,3.34
2022-12-01T11:20:08.160Z,3.22
2022-12-01T11:21:10.386Z,2.49
2022-12-01T11:22:12.238Z,3.22
2022-12-01T11:23:14.060Z,2.57
2022-12-01T11:24:15.856Z,2.80
2022-12-01T11:25:17.666Z,2.44
2022-12-01T11:26:19.504Z,2.87
2022-12-01T11:27:21.323Z,4.22
2022-12-01T11:28:23.125Z,4.63
2022-12-01T11:29:24.929Z,3.06
2022-12-01T11:30:26.725Z,1.92
2022-12-01T11:31:28.644Z,2.01
2022-12-01T11:32:30.571Z,2.19
2022-12-01T11:33:32.406Z,1.83
2022-12-01T11:34:35.235Z,1.81
2022-12-01T11:35:37.046Z,1.93
2022-12-01T11:36:38.898Z,1.91
2022-12-01T11:37:42.011Z,1.30
2022-12-01T11:38:44.023Z,2.18
2022-12-01T11:39:45.848Z,7.06
2022-12-01T11:40:47.646Z,6.53
2022-12-01T11:41:49.498Z,3.29
2022-12-01T11:42:51.319Z,2.39
2022-12-01T11:44:01.086Z,3.49
2022-12-01T11:44:56.831Z,3.49
2022-12-01T11:45:58.718Z,2.25
2022-12-01T11:47:21.497Z,2.02
2022-12-01T11:48:04.275Z,1.49
2022-12-01T11:49:06.083Z,1.28
2022-12-01T11:50:08.014Z,1.43
2022-12-01T11:51:09.830Z,2.99
2022-12-01T11:52:11.674Z,3.63
2022-12-01T11:53:13.502Z,2.16
2022-12-01T11:54:15.308Z,1.30
2022-12-01T11:55:17.102Z,1.78
2022-12-01T11:56:18.913Z,1.79
2022-12-01T11:57:36.404Z,1.40
2022-12-01T11:58:25.085Z,4.00
2022-12-01T11:59:26.864Z,5.79
2022-12-01T12:00:28.683Z,4.28
2022-12-01T12:01:30.494Z,3.43
2022-12-01T12:02:32.388Z,5.60
2022-12-01T12:03:34.195Z,5.81
2022-12-01T12:04:35.956Z,7.46
2022-12-01T12:05:37.768Z,7.37
2022-12-01T12:07:43.283Z,3.46
2022-12-01T12:08:45.186Z,5.24
2022-12-01T12:09:47.505Z,4.64
2022-12-01T12:10:49.703Z,4.02
2022-12-01T12:11:51.564Z,3.88
2022-12-01T12:12:53.402Z,4.25
2022-12-01T12:13:55.201Z,3.12
2022-12-01T12:14:56.996Z,2.67
2022-12-01T12:15:58.814Z,2.81
2022-12-01T12:17:00.619Z,2.74
2022-12-01T12:18:02.572Z,3.29
2022-12-01T12:19:04.382Z,3.08
2022-12-01T12:20:08.229Z,2.75
2022-12-01T12:21:10.117Z,3.26
2022-12-01T12:22:11.907Z,3.44
2022-12-01T12:23:13.742Z,3.32
2022-12-01T12:24:15.567Z,4.12
2022-12-01T12:25:17.367Z,3.79
2022-12-01T12:26:19.183Z,4.42
2022-12-01T12:27:20.984Z,4.16
2022-12-01T12:28:22.842Z,3.12
2022-12-01T12:29:24.638Z,4.56
2022-12-01T12:30:26.554Z,3.70
2022-12-01T12:31:28.390Z,2.89
2022-12-01T12:32:30.161Z,2.72
2022-12-01T12:33:31.996Z,2.41
2022-12-01T12:34:33.825Z,2.81
2022-12-01T12:35:35.644Z,3.46
2022-12-01T12:36:38.304Z,2.47
2022-12-01T12:37:40.133Z,3.36
2022-12-01T12:38:41.972Z,2.96
2022-12-01T12:39:43.815Z,3.49
2022-12-01T12:40:45.624Z,4.39
2022-12-01T12:41:47.433Z,4.26
2022-12-01T12:42:49.236Z,2.49
2022-12-01T12:43:51.534Z,2.93
2022-12-01T12:44:53.357Z,2.51
2022-12-01T12:45:55.200Z,1.98
2022-12-01T12:46:56.979Z,2.87
2022-12-01T12:47:58.799Z,2.91
2022-12-01T12:49:19.304Z,3.08
2022-12-01T12:50:04.367Z,2.61
2022-12-01T12:51:06.182Z,2.43
2022-12-01T12:52:09.018Z,2.69
2022-12-01T12:53:10.928Z,2.46
2022-12-01T12:54:12.849Z,3.03
2022-12-01T12:55:14.750Z,3.03
2022-12-01T12:56:16.892Z,2.69
2022-12-01T12:57:18.631Z,2.59
2022-12-01T12:58:20.456Z,3.22
2022-12-01T12:59:22.290Z,3.67
2022-12-01T13:00:24.102Z,3.26
2022-12-01T13:01:25.947Z,4.09
2022-12-01T13:02:27.727Z,4.01
2022-12-01T13:03:33.946Z,4.95
2022-12-01T13:04:33.275Z,4.56
2022-12-01T13:05:35.093Z,4.91
2022-12-01T13:06:36.909Z,4.39
2022-12-01T13:07:38.747Z,3.60
2022-12-01T13:08:40.549Z,4.36
2022-12-01T13:09:42.370Z,4.66
2022-12-01T13:10:44.110Z,4.55
2022-12-01T13:11:46.115Z,5.64
2022-12-01T13:12:47.932Z,5.53
2022-12-01T13:13:49.740Z,5.65
2022-12-01T13:14:55.139Z,4.57
2022-12-01T13:15:55.317Z,4.68
2022-12-01T13:16:57.168Z,4.32
2022-12-01T13:17:58.992Z,3.89
2022-12-01T13:19:00.811Z,4.26
2022-12-01T13:20:02.749Z,3.87
2022-12-01T13:21:04.465Z,4.05
2022-12-01T13:22:06.303Z,5.53
2022-12-01T13:23:08.059Z,4.80
2022-12-01T13:24:09.896Z,3.77
2022-12-01T13:25:11.748Z,5.27
2022-12-01T13:26:13.633Z,5.36
2022-12-01T13:27:15.434Z,5.84
2022-12-01T13:28:17.218Z,4.72
2022-12-01T13:29:19.558Z,4.75
2022-12-01T13:30:22.184Z,4.92
2022-12-01T13:31:24.024Z,5.12
2022-12-01T13:32:25.818Z,4.67
2022-12-01T13:33:27.612Z,5.19
2022-12-01T13:34:29.409Z,4.95
2022-12-01T13:35:31.267Z,4.71
2022-12-01T13:36:48.414Z,8.24
2022-12-01T13:37:36.689Z,10.55
2022-12-01T13:38:38.511Z,9.30
2022-12-01T13:39:40.331Z,10.25
2022-12-01T13:40:42.287Z,9.09
2022-12-01T13:41:44.128Z,7.58
2022-12-01T13:42:45.947Z,7.53
2022-12-01T13:43:47.747Z,8.24
2022-12-01T13:44:49.980Z,6.24